createdAt,value
2023-03-26T00:00:02.671Z,12.30
2023-03-26T00:02:34.964Z,11.87
2023-03-26T00:04:57.341Z,7.43
2023-03-26T00:07:19.528Z,7.47
2023-03-26T00:09:41.809Z,9.80
2023-03-26T00:12:04.179Z,8.83
2023-03-26T00:14:26.885Z,11.57
2023-03-26T00:16:49.430Z,7.43
2023-03-26T00:19:12.739Z,10.20
2023-03-26T00:21:35.325Z,5.53
2023-03-26T00:23:59.664Z,7.00
2023-03-26T00:26:22.595Z,11.43
2023-03-26T00:28:45.416Z,12.77
2023-03-26T00:31:09.872Z,13.43
2023-03-26T00:33:32.658Z,17.23
2023-03-26T00:35:55.820Z,14.30
2023-03-26T00:38:18.281Z,10.57
2023-03-26T00:40:44.057Z,10.97
2023-03-26T00:43:18.489Z,12.00
2023-03-26T00:45:40.764Z,11.13
2023-03-26T00:48:03.119Z,11.87
2023-03-26T00:50:25.380Z,11.30
2023-03-26T00:52:47.635Z,10.17
2023-03-26T00:55:13.939Z,8.07
2023-03-26T00:57:37.435Z,13.43
2023-03-26T00:59:59.682Z,9.80
2023-03-26T01:02:22.211Z,9.70
2023-03-26T01:04:49.064Z,11.17
2023-03-26T01:07:13.430Z,10.20
2023-03-26T01:09:37.352Z,9.07
2023-03-26T01:12:01.662Z,12.17
2023-03-26T01:14:25.204Z,7.10
2023-03-26T01:16:51.944Z,7.43
2023-03-26T01:19:38.390Z,10.17
2023-03-26T01:22:00.943Z,8.47
2023-03-26T01:24:23.262Z,14.63
2023-03-26T01:26:45.450Z,9.77
2023-03-26T01:29:09.574Z,13.33
2023-03-26T01:31:37.066Z,12.60
2023-03-26T01:34:05.974Z,10.03
2023-03-26T01:36:33.286Z,10.23
2023-03-26T01:39:09.811Z,13.23
2023-03-26T01:41:49.988Z,10.07
2023-03-26T01:44:17.565Z,12.80
2023-03-26T01:46:40.086Z,11.13
2023-03-26T01:49:03.587Z,14.97
2023-03-26T01:51:27.862Z,7.40
2023-03-26T01:53:50.113Z,8.37
2023-03-26T01:56:18.580Z,5.03
2023-03-26T01:59:03.576Z,10.17
2023-03-26T02:01:31.356Z,14.10
2023-03-26T02:04:20.439Z,7.30
2023-03-26T02:06:46.945Z,9.93
2023-03-26T02:09:12.628Z,6.93
2023-03-26T02:11:36.325Z,8.30
2023-03-26T02:13:58.852Z,5.97
2023-03-26T02:16:21.640Z,10.00
2023-03-26T02:18:45.042Z,10.20
2023-03-26T02:21:10.095Z,8.73
2023-03-26T02:23:35.766Z,5.47
2023-03-26T02:25:58.346Z,13.47
2023-03-26T02:28:22.939Z,14.47
2023-03-26T02:30:45.891Z,8.57
2023-03-26T02:33:09.030Z,9.57
2023-03-26T02:35:36.357Z,12.60
2023-03-26T02:37:59.192Z,10.93
2023-03-26T02:40:22.430Z,10.67
2023-03-26T02:42:49.798Z,11.00
2023-03-26T02:45:12.465Z,10.77
2023-03-26T02:47:54.677Z,8.10
2023-03-26T02:50:46.514Z,10.17
2023-03-26T02:53:29.618Z,9.53
2023-03-26T02:56:07.376Z,8.03
2023-03-26T02:58:43.945Z,10.87
2023-03-26T03:01:06.544Z,9.67
2023-03-26T03:03:47.272Z,5.53
2023-03-26T03:06:20.018Z,12.47
2023-03-26T03:08:47.362Z,15.87
2023-03-26T03:11:14.797Z,11.93
2023-03-26T03:13:45.195Z,12.20
2023-03-26T03:16:11.166Z,8.73
2023-03-26T03:18:33.589Z,12.33
2023-03-26T03:20:56.553Z,12.70
2023-03-26T03:23:18.899Z,34.70
2023-03-26T03:25:41.475Z,14.27
2023-03-26T03:28:04.057Z,9.53
2023-03-26T03:30:26.584Z,11.90
2023-03-26T03:33:03.532Z,16.03
2023-03-26T03:35:27.773Z,10.77
2023-03-26T03:37:53.065Z,7.80
2023-03-26T03:40:15.657Z,12.63
2023-03-26T03:42:39.031Z,11.03
2023-03-26T03:45:02.844Z,7.20
2023-03-26T03:47:57.572Z,9.50
2023-03-26T03:50:33.113Z,10.20
2023-03-26T03:53:26.169Z,12.30
2023-03-26T03:55:53.489Z,8.23
2023-03-26T03:58:21.837Z,9.83
2023-03-26T04:00:46.296Z,8.87
2023-03-26T04:03:39.087Z,10.47
2023-03-26T04:06:07.410Z,14.03
2023-03-26T04:08:30.209Z,16.67
2023-03-26T04:10:54.888Z,13.17
2023-03-26T04:13:46.331Z,12.07
2023-03-26T04:16:22.304Z,8.17
2023-03-26T04:18:47.800Z,17.30
2023-03-26T04:21:12.497Z,9.17
2023-03-26T04:23:34.972Z,6.60
2023-03-26T04:26:06.760Z,13.30
2023-03-26T04:28:55.640Z,12.17
2023-03-26T04:31:24.113Z,9.17
2023-03-26T04:33:47.644Z,14.27
2023-03-26T04:36:12.469Z,11.30
2023-03-26T04:38:40.761Z,9.80
2023-03-26T04:41:04.568Z,8.67
2023-03-26T04:43:50.767Z,12.67
2023-03-26T04:46:33.899Z,10.60
2023-03-26T04:49:08.112Z,10.37
2023-03-26T04:51:35.342Z,10.83
2023-03-26T04:53:59.877Z,13.87
2023-03-26T04:56:40.258Z,15.83
2023-03-26T04:59:26.674Z,11.43
2023-03-26T05:01:57.252Z,11.70
2023-03-26T05:04:21.536Z,16.40
2023-03-26T05:06:44.800Z,11.43
2023-03-26T05:09:16.033Z,11.23
2023-03-26T05:12:08.322Z,12.57
2023-03-26T05:14:42.168Z,13.03
2023-03-26T05:17:15.265Z,9.53
2023-03-26T05:19:39.140Z,10.87
2023-03-26T05:22:02.380Z,12.30
2023-03-26T05:24:25.949Z,10.00
2023-03-26T05:26:48.672Z,11.50
2023-03-26T05:29:18.544Z,8.50
2023-03-26T05:31:52.192Z,9.77
2023-03-26T05:34:14.507Z,10.30
2023-03-26T05:36:39.547Z,7.93
2023-03-26T05:39:28.830Z,5.37
2023-03-26T05:41:54.425Z,8.53
2023-03-26T05:47:13.394Z,4.67
2023-03-26T05:49:36.471Z,5.97
2023-03-26T05:51:59.185Z,7.87
2023-03-26T05:54:50.723Z,5.73
2023-03-26T05:57:35.599Z,6.70
2023-03-26T06:00:30.084Z,6.60
2023-03-26T06:02:57.566Z,6.73
2023-03-26T06:05:53.364Z,7.33
2023-03-26T06:08:29.855Z,4.50
2023-03-26T06:10:52.813Z,6.07
2023-03-26T06:13:16.321Z,4.77
2023-03-26T06:15:40.412Z,5.37
2023-03-26T06:18:11.796Z,4.53
2023-03-26T06:20:53.290Z,4.80
2023-03-26T06:23:27.566Z,8.03
2023-03-26T06:26:11.295Z,5.97
2023-03-26T06:28:54.329Z,6.83
2023-03-26T06:31:38.823Z,6.13
2023-03-26T06:34:14.514Z,4.60
2023-03-26T06:36:37.102Z,4.23
2023-03-26T06:39:00.837Z,4.23
2023-03-26T06:41:31.277Z,5.77
2023-03-26T06:44:17.148Z,8.40
2023-03-26T06:47:17.895Z,10.30
2023-03-26T06:49:46.250Z,6.17
2023-03-26T06:52:28.680Z,5.27
2023-03-26T06:55:16.321Z,7.87
2023-03-26T06:57:58.917Z,6.90
2023-03-26T07:01:03.684Z,8.20
2023-03-26T07:03:47.211Z,5.10
2023-03-26T07:06:33.485Z,7.17
2023-03-26T07:09:23.221Z,8.73
2023-03-26T07:12:04.539Z,9.03
2023-03-26T07:14:45.922Z,8.07
2023-03-26T07:17:29.642Z,10.43
2023-03-26T07:20:01.516Z,5.30
2023-03-26T07:22:26.033Z,9.07
2023-03-26T07:25:07.751Z,8.60
2023-03-26T07:28:13.220Z,7.60
2023-03-26T07:31:12.856Z,5.93
2023-03-26T07:34:21.925Z,8.37
2023-03-26T07:37:19.815Z,5.57
2023-03-26T07:40:05.966Z,5.80
2023-03-26T07:42:58.594Z,8.93
2023-03-26T07:45:45.999Z,8.30
2023-03-26T07:48:43.775Z,7.77
2023-03-26T07:51:14.043Z,5.80
2023-03-26T07:53:49.209Z,5.43
2023-03-26T07:56:38.136Z,5.20
2023-03-26T07:59:13.797Z,5.47
2023-03-26T08:02:34.732Z,5.27
2023-03-26T08:05:37.084Z,4.93
2023-03-26T08:08:34.710Z,4.60
2023-03-26T08:11:32.233Z,5.93
2023-03-26T08:14:11.922Z,7.10
2023-03-26T08:16:38.319Z,8.37
2023-03-26T08:19:10.824Z,6.53
2023-03-26T08:21:40.002Z,6.47
2023-03-26T08:24:19.942Z,5.37
2023-03-26T08:26:47.712Z,6.00
2023-03-26T08:29:16.215Z,6.57
2023-03-26T08:31:40.425Z,3.47
2023-03-26T08:34:02.802Z,4.13
2023-03-26T08:36:25.821Z,2.00
2023-03-26T08:38:48.567Z,4.50
2023-03-26T08:41:18.871Z,5.97
2023-03-26T08:43:59.776Z,5.73
2023-03-26T08:46:34.113Z,3.43
2023-03-26T08:48:56.345Z,5.13
2023-03-26T08:51:18.808Z,2.30
2023-03-26T08:53:59.261Z,4.43
2023-03-26T08:56:33.423Z,4.27
2023-03-26T08:59:00.785Z,2.37
2023-03-26T09:01:26.487Z,3.57
2023-03-26T09:04:15.628Z,2.73
2023-03-26T09:06:56.830Z,5.60
2023-03-26T09:09:38.045Z,5.30
2023-03-26T09:12:19.312Z,2.87
2023-03-26T09:14:59.387Z,3.70
2023-03-26T09:17:29.750Z,2.60
2023-03-26T09:19:53.524Z,3.63
2023-03-26T09:22:28.312Z,2.43
2023-03-26T09:25:00.201Z,4.87
2023-03-26T09:27:22.382Z,3.83
2023-03-26T09:30:03.508Z,2.10
2023-03-26T09:32:38.257Z,4.27
2023-03-26T09:35:07.377Z,2.13
2023-03-26T09:37:57.008Z,2.40
2023-03-26T09:40:22.495Z,3.67
2023-03-26T09:42:56.922Z,6.47
2023-03-26T09:45:25.620Z,1.90
2023-03-26T09:47:48.077Z,3.30
2023-03-26T09:50:13.386Z,4.67
2023-03-26T09:52:35.674Z,4.83
2023-03-26T09:55:27.696Z,2.60
2023-03-26T09:57:58.532Z,4.37
2023-03-26T10:00:24.152Z,5.77
2023-03-26T10:03:05.678Z,4.37
2023-03-26T10:05:28.047Z,5.53
2023-03-26T10:07:50.405Z,4.83
2023-03-26T10:10:24.092Z,1.63
2023-03-26T10:12:51.354Z,3.90
2023-03-26T10:15:40.922Z,4.73
2023-03-26T10:18:26.980Z,6.00
2023-03-26T10:20:56.845Z,5.80
2023-03-26T10:23:33.304Z,5.40
2023-03-26T10:26:22.149Z,7.27
2023-03-26T10:28:44.552Z,4.93
2023-03-26T10:31:26.106Z,4.67
2023-03-26T10:33:57.861Z,8.03
2023-03-26T10:36:36.622Z,4.73
2023-03-26T10:39:37.775Z,2.57
2023-03-26T10:42:23.086Z,2.90
2023-03-26T10:44:54.195Z,5.57
2023-03-26T10:47:25.895Z,3.13
2023-03-26T10:50:06.228Z,3.47
2023-03-26T10:52:32.450Z,5.50
2023-03-26T10:54:57.855Z,3.60
2023-03-26T10:57:40.789Z,4.63
2023-03-26T11:00:13.874Z,4.53
2023-03-26T11:02:44.591Z,5.77
2023-03-26T11:05:39.189Z,5.40
2023-03-26T11:08:05.482Z,4.97
2023-03-26T11:10:47.028Z,5.40
2023-03-26T11:13:19.583Z,4.70
2023-03-26T11:16:02.245Z,3.57
2023-03-26T11:18:32.970Z,3.63
2023-03-26T11:21:19.146Z,5.93
2023-03-26T11:24:04.818Z,10.77
2023-03-26T11:26:34.799Z,9.93
2023-03-26T11:29:05.145Z,3.43
2023-03-26T11:31:55.839Z,2.97
2023-03-26T11:34:23.521Z,5.40
2023-03-26T11:36:51.510Z,7.43
2023-03-26T11:39:17.002Z,3.70
2023-03-26T11:41:39.554Z,6.80
2023-03-26T11:44:13.722Z,7.43
2023-03-26T11:46:38.771Z,4.63
2023-03-26T11:49:09.229Z,5.57
2023-03-26T11:51:33.507Z,3.87
2023-03-26T11:53:57.860Z,6.73
2023-03-26T11:56:26.397Z,4.33
2023-03-26T11:58:48.737Z,4.80
2023-03-26T12:01:19.343Z,5.97
2023-03-26T12:03:41.842Z,4.77
2023-03-26T12:06:04.739Z,4.30
2023-03-26T12:08:39.827Z,3.83
2023-03-26T12:11:10.409Z,4.43
2023-03-26T12:13:43.733Z,3.33
2023-03-26T12:16:11.430Z,5.07
2023-03-26T12:18:34.278Z,3.87
2023-03-26T12:21:21.773Z,6.30
2023-03-26T12:23:46.877Z,6.70
2023-03-26T12:26:17.438Z,5.27
2023-03-26T12:28:44.561Z,3.50
2023-03-26T12:31:09.431Z,6.13
2023-03-26T12:33:34.298Z,6.03
2023-03-26T12:35:58.422Z,3.73
2023-03-26T12:38:22.087Z,6.70
2023-03-26T12:40:45.100Z,8.90
2023-03-26T12:44:49.337Z,9.73
2023-03-26T12:47:55.708Z,5.60
2023-03-26T12:48:50.870Z,8.77
2023-03-26T12:51:33.534Z,5.17
2023-03-26T12:54:13.616Z,8.27
2023-03-26T12:57:15.257Z,7.87
2023-03-26T12:59:42.294Z,5.87
2023-03-26T13:02:14.278Z,10.83
2023-03-26T13:05:06.713Z,5.83
2023-03-26T13:07:45.427Z,7.80
2023-03-26T13:10:23.536Z,4.87
2023-03-26T13:13:05.248Z,4.50
2023-03-26T13:15:51.954Z,6.23
2023-03-26T13:18:32.488Z,7.03
2023-03-26T13:21:09.522Z,9.67
2023-03-26T13:23:56.073Z,7.37
2023-03-26T13:26:29.880Z,6.73
2023-03-26T13:29:08.211Z,4.27
2023-03-26T13:31:45.521Z,4.20
2023-03-26T13:34:19.522Z,3.93
2023-03-26T13:36:55.742Z,6.17
2023-03-26T13:39:23.361Z,5.33
2023-03-26T13:41:57.582Z,6.00
2023-03-26T13:44:32.061Z,3.47
2023-03-26T13:46:59.757Z,6.27
2023-03-26T13:49:41.058Z,4.37
2023-03-26T13:52:14.243Z,3.90
2023-03-26T13:54:41.228Z,4.73
2023-03-26T13:57:07.901Z,3.40
2023-03-26T13:59:36.416Z,2.10
2023-03-26T14:02:03.601Z,3.77
2023-03-26T14:04:32.195Z,2.30
2023-03-26T14:07:11.392Z,2.00
2023-03-26T14:09:40.900Z,1.20
2023-03-26T14:12:21.392Z,2.23
2023-03-26T14:14:51.388Z,1.40
2023-03-26T14:17:22.029Z,1.30
2023-03-26T14:19:53.274Z,1.30
2023-03-26T14:22:28.751Z,2.40
2023-03-26T14:24:55.399Z,1.20
2023-03-26T14:27:20.078Z,1.67
2023-03-26T14:30:05.467Z,2.13
2023-03-26T14:32:53.790Z,1.40
2023-03-26T14:35:37.877Z,1.37
2023-03-26T14:38:07.179Z,1.00
2023-03-26T14:40:29.626Z,1.23
2023-03-26T14:43:04.587Z,1.97
2023-03-26T14:45:38.539Z,1.10
2023-03-26T14:48:18.051Z,1.37
2023-03-26T14:50:47.775Z,1.33
2023-03-26T14:53:22.510Z,1.43
2023-03-26T14:55:56.927Z,3.23
2023-03-26T14:58:41.738Z,3.07
2023-03-26T15:01:25.421Z,2.77
2023-03-26T15:04:07.532Z,1.83
2023-03-26T15:06:51.202Z,2.53
2023-03-26T15:09:40.404Z,2.30
2023-03-26T15:12:12.629Z,3.37
2023-03-26T15:14:59.793Z,3.40
2023-03-26T15:17:28.919Z,3.13
2023-03-26T15:20:10.560Z,8.13
2023-03-26T15:22:45.075Z,6.27
2023-03-26T15:25:18.454Z,4.57
2023-03-26T15:27:50.035Z,6.37
2023-03-26T15:30:15.323Z,1.30
2023-03-26T15:32:49.515Z,1.63
2023-03-26T15:35:12.594Z,1.17
2023-03-26T15:37:42.507Z,1.20
2023-03-26T15:40:20.621Z,1.33
2023-03-26T15:42:59.014Z,2.30
2023-03-26T15:45:40.844Z,1.57
2023-03-26T15:48:09.531Z,1.90
2023-03-26T15:50:48.825Z,1.10
2023-03-26T15:53:11.273Z,1.10
2023-03-26T15:55:46.584Z,1.00
2023-03-26T15:58:17.050Z,1.87
2023-03-26T16:00:48.984Z,2.00
2023-03-26T16:03:11.387Z,1.33
2023-03-26T16:05:53.235Z,1.17
2023-03-26T16:08:38.765Z,1.20
2023-03-26T16:11:07.827Z,2.40
2023-03-26T16:13:30.619Z,1.20
2023-03-26T16:15:58.099Z,1.93
2023-03-26T16:18:26.586Z,2.27
2023-03-26T16:20:54.375Z,1.97
2023-03-26T16:23:30.540Z,1.00
2023-03-26T16:25:56.077Z,1.47
2023-03-26T16:28:29.232Z,1.67
2023-03-26T16:31:10.790Z,1.87
2023-03-26T16:34:10.584Z,1.50
2023-03-26T16:36:36.293Z,2.80
2023-03-26T16:39:04.983Z,2.30
2023-03-26T16:41:28.191Z,3.07
2023-03-26T16:44:02.266Z,2.20
2023-03-26T16:46:43.499Z,2.83
2023-03-26T16:49:24.791Z,1.63
2023-03-26T16:51:50.231Z,1.00
2023-03-26T16:54:13.388Z,3.30
2023-03-26T16:56:47.528Z,3.03
2023-03-26T16:59:16.230Z,1.40
2023-03-26T17:01:42.945Z,1.50
2023-03-26T17:04:07.110Z,2.40
2023-03-26T17:06:32.236Z,1.23
2023-03-26T17:09:04.223Z,1.10
2023-03-26T17:11:38.519Z,3.80
2023-03-26T17:14:03.647Z,1.50
2023-03-26T17:16:28.759Z,2.47
2023-03-26T17:19:04.332Z,3.90
2023-03-26T17:21:46.293Z,1.43
2023-03-26T17:24:18.449Z,3.40
2023-03-26T17:26:58.184Z,2.27
2023-03-26T17:29:20.396Z,1.30
2023-03-26T17:31:51.105Z,1.20
2023-03-26T17:34:32.443Z,1.40
2023-03-26T17:36:59.229Z,1.20
2023-03-26T17:39:22.661Z,1.10
2023-03-26T17:41:52.791Z,1.53
2023-03-26T17:44:34.168Z,1.20
2023-03-26T17:46:57.647Z,1.10
2023-03-26T17:49:22.936Z,1.40
2023-03-26T17:51:45.120Z,1.33
2023-03-26T17:54:08.954Z,1.40
2023-03-26T17:56:32.605Z,1.40
2023-03-26T17:59:12.253Z,1.23
2023-03-26T18:01:39.682Z,1.20
2023-03-26T18:04:04.101Z,1.30
2023-03-26T18:06:26.672Z,1.10
2023-03-26T18:08:52.007Z,1.37
2023-03-26T18:11:16.990Z,1.50
2023-03-26T18:13:49.508Z,1.23
2023-03-26T18:16:15.013Z,1.47
2023-03-26T18:18:43.211Z,1.30
2023-03-26T18:21:09.232Z,1.40
2023-03-26T18:23:39.539Z,1.30
2023-03-26T18:26:13.691Z,1.90
2023-03-26T18:28:40.105Z,2.00
2023-03-26T18:31:10.810Z,1.93
2023-03-26T18:33:42.218Z,1.93
2023-03-26T18:36:04.685Z,1.90
2023-03-26T18:38:35.825Z,1.80
2023-03-26T18:41:00.959Z,3.13
2023-03-26T18:43:34.391Z,1.93
2023-03-26T18:45:57.827Z,3.43
2023-03-26T18:48:22.090Z,1.80
2023-03-26T18:50:44.554Z,2.20
2023-03-26T18:53:08.242Z,4.23
2023-03-26T18:55:32.610Z,3.27
2023-03-26T18:57:54.862Z,1.90
2023-03-26T19:00:25.563Z,2.00
2023-03-26T19:02:49.829Z,2.80
2023-03-26T19:05:16.580Z,2.53
2023-03-26T19:07:39.160Z,2.47
2023-03-26T19:10:01.693Z,1.77
2023-03-26T19:12:35.586Z,2.00
2023-03-26T19:15:03.727Z,1.87
2023-03-26T19:17:28.503Z,1.30
2023-03-26T19:19:51.122Z,1.50
2023-03-26T19:22:13.331Z,1.60
2023-03-26T19:24:36.150Z,2.40
2023-03-26T19:26:58.810Z,1.93
2023-03-26T19:29:26.398Z,1.60
2023-03-26T19:31:51.608Z,1.80
2023-03-26T19:34:13.986Z,2.00
2023-03-26T19:36:36.952Z,2.40
2023-03-26T19:39:02.763Z,1.97
2023-03-26T19:41:26.778Z,2.10
2023-03-26T19:43:58.115Z,1.83
2023-03-26T19:46:22.909Z,1.90
2023-03-26T19:48:49.117Z,2.60
2023-03-26T19:51:19.745Z,2.00
2023-03-26T19:53:44.335Z,2.00
2023-03-26T19:56:13.473Z,2.57
2023-03-26T19:58:36.058Z,2.40
2023-03-26T20:00:59.159Z,2.67
2023-03-26T20:03:24.676Z,2.30
2023-03-26T20:05:46.940Z,2.63
2023-03-26T20:08:14.452Z,2.93
2023-03-26T20:10:36.903Z,3.20
2023-03-26T20:13:00.330Z,3.13
2023-03-26T20:15:24.399Z,3.30
2023-03-26T20:17:49.978Z,3.40
2023-03-26T20:20:13.192Z,3.27
2023-03-26T20:22:35.427Z,3.37
2023-03-26T20:24:57.655Z,3.57
2023-03-26T20:27:19.913Z,3.40
2023-03-26T20:29:42.646Z,4.57
2023-03-26T20:32:09.322Z,3.93
2023-03-26T20:34:32.032Z,3.83
2023-03-26T20:36:55.877Z,3.80
2023-03-26T20:39:18.394Z,4.20
2023-03-26T20:41:45.309Z,4.00
2023-03-26T20:44:13.739Z,4.37
2023-03-26T20:46:36.210Z,4.43
2023-03-26T20:48:58.916Z,4.20
2023-03-26T20:51:21.284Z,4.17
2023-03-26T20:53:44.323Z,3.90
2023-03-26T20:58:31.349Z,4.60
2023-03-26T21:00:55.505Z,9.57
2023-03-26T21:03:18.452Z,3.90
2023-03-26T21:05:41.216Z,4.07
2023-03-26T21:08:03.600Z,4.37
2023-03-26T21:10:27.192Z,4.67
2023-03-26T21:13:09.017Z,3.97
2023-03-26T21:15:31.768Z,4.20
2023-03-26T21:17:58.313Z,4.83
2023-03-26T21:20:21.144Z,4.00
2023-03-26T21:22:44.771Z,4.27
2023-03-26T21:25:15.367Z,3.90
2023-03-26T21:27:53.047Z,4.10
2023-03-26T21:30:16.818Z,4.40
2023-03-26T21:32:40.198Z,4.93
2023-03-26T21:35:05.154Z,4.67
2023-03-26T21:37:31.136Z,4.70
2023-03-26T21:39:54.399Z,5.20
2023-03-26T21:42:16.901Z,5.20
2023-03-26T21:44:41.853Z,5.10
2023-03-26T21:47:05.306Z,5.57
2023-03-26T21:49:28.706Z,5.67
2023-03-26T21:51:51.067Z,4.97
2023-03-26T21:54:33.765Z,5.57
2023-03-26T21:57:02.262Z,4.80
2023-03-26T21:59:37.216Z,4.90
2023-03-26T22:02:19.011Z,6.23
2023-03-26T22:04:50.621Z,4.30
2023-03-26T22:07:15.816Z,7.13
2023-03-26T22:09:38.537Z,6.73
2023-03-26T22:12:02.066Z,4.43
2023-03-26T22:14:28.480Z,4.20
2023-03-26T22:16:51.937Z,7.23
2023-03-26T22:19:23.467Z,5.40
2023-03-26T22:21:46.100Z,3.80
2023-03-26T22:24:08.887Z,6.77
2023-03-26T22:26:31.909Z,5.90
2023-03-26T22:28:54.622Z,6.00
2023-03-26T22:31:17.574Z,5.80
2023-03-26T22:33:40.185Z,6.53
2023-03-26T22:36:02.802Z,5.53
2023-03-26T22:38:32.297Z,7.53
2023-03-26T22:41:00.935Z,8.33
2023-03-26T22:43:23.531Z,9.83
2023-03-26T22:45:51.305Z,7.53
2023-03-26T22:48:13.813Z,8.20
2023-03-26T22:50:36.837Z,7.70
2023-03-26T22:52:59.228Z,11.97
2023-03-26T22:55:29.018Z,13.40
2023-03-26T22:57:53.354Z,15.83
2023-03-26T23:00:19.940Z,12.97
2023-03-26T23:02:44.965Z,7.67
2023-03-26T23:05:09.964Z,9.60
2023-03-26T23:07:35.555Z,9.90
2023-03-26T23:10:00.286Z,6.80
2023-03-26T23:12:22.597Z,9.93
2023-03-26T23:14:44.825Z,10.57
2023-03-26T23:17:08.836Z,10.43
2023-03-26T23:19:34.043Z,8.53
2023-03-26T23:21:56.645Z,7.30
2023-03-26T23:24:30.172Z,6.90
2023-03-26T23:26:53.320Z,7.63
2023-03-26T23:29:15.675Z,9.80
2023-03-26T23:31:38.696Z,8.00
2023-03-26T23:34:02.912Z,9.00
2023-03-26T23:36:28.781Z,7.47
2023-03-26T23:38:57.121Z,8.73
2023-03-26T23:41:22.999Z,8.13
2023-03-26T23:43:53.793Z,8.10
2023-03-26T23:46:18.305Z,4.83
2023-03-26T23:48:42.162Z,6.47
2023-03-26T23:51:05.024Z,7.57
2023-03-26T23:53:34.608Z,3.97
2023-03-26T23:55:59.218Z,8.33
2023-03-26T23:58:22.357Z,7.27
